This is the latest recevied weather packets stored in our database for station/object OE3TEC-15. If no packets are shown the sender has not sent any weather packets the latest 10 day(s).
| Time | Temp. | Humidity | Pressure | Rain* | Wind** | Luminosity | Snow |
|---|---|---|---|---|---|---|---|
| 1777537602 | 10° C | 35% | 1032.4 hPa | 0 mm | - | 538 W/m² | - |
| 1777536996 | 10° C | 33% | 1032.4 hPa | 0 mm | - | 523 W/m² | - |
| 1777536390 | 10° C | 35% | 1032.4 hPa | 0 mm | - | 504 W/m² | - |
| 1777535781 | 9.44° C | 36% | 1032.6 hPa | 0 mm | - | 481 W/m² | - |
| 1777535174 | 9.44° C | 35% | 1032.5 hPa | 0 mm | - | 460 W/m² | - |
| 1777534567 | 8.89° C | 37% | 1032.8 hPa | 0 mm | - | 434 W/m² | - |
| 1777533959 | 8.89° C | 38% | 1032.7 hPa | 0 mm | - | 411 W/m² | - |
| 1777533352 | 8.33° C | 37% | 1032.7 hPa | 0 mm | - | 386 W/m² | - |
| 1777532746 | 8.33° C | 39% | 1032.6 hPa | 0 mm | - | 358 W/m² | - |
| 1777532138 | 7.78° C | 42% | 1032.6 hPa | 0 mm | - | 279 W/m² | - |
| 1777531531 | 7.78° C | 40% | 1032.7 hPa | 0 mm | - | 308 W/m² | - |
| 1777530925 | 7.22° C | 42% | 1032.6 hPa | 0 mm | - | 282 W/m² | - |
| 1777530317 | 6.67° C | 45% | 1032.6 hPa | 0 mm | - | 258 W/m² | - |
| 1777529709 | 5.56° C | 45% | 1032.4 hPa | 0 mm | - | 232 W/m² | - |
| 1777529108 | 5.56° C | 46% | 1032.5 hPa | 0 mm | - | 208 W/m² | - |
| 1777528494 | 5.56° C | 46% | 1032.4 hPa | 0 mm | - | 185 W/m² | - |
| 1777527887 | 5° C | 49% | 1032.5 hPa | 0 mm | - | 169 W/m² | - |
| 1777527280 | 3.89° C | 51% | 1032.4 hPa | 0 mm | - | 139 W/m² | - |
| 1777526673 | 3.89° C | 51% | 1032.4 hPa | 0 mm | - | 119 W/m² | - |
| 1777526066 | 3.33° C | 55% | 1032.4 hPa | 0 mm | - | 98 W/m² | - |
| 1777525460 | 2.78° C | 55% | 1032.3 hPa | 0 mm | - | 80 W/m² | - |
| 1777524850 | 1.67° C | 59% | 1032.2 hPa | 0 mm | - | 63 W/m² | - |
| 1777524244 | 0.56° C | 64% | 1032.3 hPa | 0 mm | - | 49 W/m² | - |
| 1777523638 | -0.56° C | 68% | 1032.2 hPa | 0 mm | - | 38 W/m² | - |
| 1777523030 | -1.11° C | 69% | 1032 hPa | 0 mm | - | 21 W/m² | - |
* Rain latest hour (hover to see other rain measurements)
** Current wind speed in m/s (hover to see current wind gust speed)